• Join FlightAware (Why Join?)
  • Login
  • US Flag 
08:29AM EDT


 

Airport Tracker/Info


-or-


 

Live Flight TrackerFlight Track Log ✈ ASQ4633 ✈ 29-Apr-2013 ✈ KBTV - KEWR

Flight Track Log - Related Links

Times and Time Zones

All times are in EDT time to prevent confusion due to time zone crossing. See the ASQ4633 flight status page for this flight to view local times or setup timezone preferences in your user account.

Time Position Orientation Groundspeed Altitude Reporting Facility
EDT Latitude Longitude Course Direction KTS MPH feet Rate Location/Type
05:52PM 44.3739 -73.1428 196° South 203 234 6,000  Level Boston Center
05:53PM 44.1887 -73.2528 190° South  Level FlightAware Approximate
05:53PM 44.3089 -73.1683 196° South 234 269 8,700  Level Boston Center
05:54PM 44.1176 -73.2706 190° South  Level FlightAware Approximate
05:54PM 44.2358 -73.1992 197° South 265 305 10,800  Level Boston Center
05:55PM 44.0469 -73.2913 196° South  Level FlightAware Approximate
05:55PM 44.1522 -73.2358 197° South 304 350 11,900  Level Boston Center
05:56PM 43.9775 -73.3191 196° South  Level FlightAware Approximate
05:56PM 44.0603 -73.2750 197° South 343 395 13,700  Level Boston Center
05:57PM 43.9080 -73.3468 196° South  Level FlightAware Approximate
05:57PM 43.9664 -73.3111 195° South 355 409 15,700  Level Boston Center
05:58PM 43.8722 -73.3503 197° South 355 409 17,500 1,500 Climbing Boston Center
05:59PM 43.7781 -73.3889 196° South 355 409 18,800 1,380 Climbing Boston Center
06:00PM 43.6758 -73.4306 196° South 369 425 20,300 1,500 Climbing Boston Center
06:01PM 43.5753 -73.4717 197° South 380 437 21,900 840 Climbing Boston Center
06:02PM 43.4667 -73.5156 196° South 387 445 22,000  Climbing Boston Center
06:03PM 43.3578 -73.5622 197° South 406 467 22,000 -180 Level Boston Center
06:04PM 43.2447 -73.6058 196° South 416 479 21,700 -660 Descending Boston Center
06:05PM 43.1233 -73.6547 196° South 416 479 20,700 -1,080 Descending Boston Center
06:06PM 43.0208 -73.6953 196° South 409 471 19,600 -1,140 Descending Boston Center
06:07PM 42.9203 -73.7358 196° South 380 437 18,500 -900 Descending Boston Center
06:08PM 42.8219 -73.7789 198° South 380 437 17,800 -780 Descending Boston Center
06:09PM 42.7422 -73.8111 197° South 380 437 17,000 -900 Descending Boston Center
06:10PM 42.6250 -73.8650 199° South 375 432 16,000 -540 Descending Boston Center
06:11PM 42.5369 -73.8997 196° South 375 432 16,000  Level Boston Center
06:12PM 42.4258 -73.9478 198° South 375 432 16,000 -60 Level Boston Center
06:13PM 42.3378 -73.9878 199° South 380 437 15,900 -60 Descending Boston Center
06:14PM 42.2328 -74.0328 198° South 375 432 15,900  Level Boston Center
06:15PM 42.1386 -74.0753 199° South 363 418 15,900 -240 Level Boston Center
06:16PM 42.0442 -74.1175 198° South 368 423 15,500 -900 Descending Boston Center
06:17PM 41.9558 -74.1569 198° South 353 406 14,100 -1,500 Descending Boston Center
06:18PM 41.8742 -74.1911 197° South 323 372 12,500 -1,080 Descending Boston Center
06:19PM 41.7964 -74.2250 198° South 306 352 12,000 -300 Descending Boston Center
06:20PM 41.7394 -74.2681 209° Southwest 261 300 12,000 -840 Level Boston Center
06:21PM 41.7192 -74.3619 254° West 242 278 10,400 -1,800 Descending Boston Center
06:22PM 41.7050 -74.4561 259° West 254 292 8,400 -1,200 Descending Boston Center
06:23PM 41.6908 -74.5447 258° West 254 292 8,000 -240 Descending Boston Center
06:24PM 41.6219 -74.5561 187° South 227 261 8,000 -480 Level Boston Center
06:25PM 41.5619 -74.5375 167° South 222 255 7,100 -540 Descending Boston Center
06:26PM 41.4894 -74.5131 166° South 241 277 7,000 -60 Descending Boston Center
06:27PM 41.4272 -74.4917 166° South 253 291 7,000  Level Boston Center
06:28PM 41.3167 -74.4500 164° South 258 297 7,100  Climbing New York TRACON
06:29PM 41.2667 -74.4500 180° South 244 281 7,000  Descending New York TRACON
06:30PM 41.2000 -74.4833 201° Southwest 216 249 7,100  Climbing New York TRACON
06:31PM 41.1500 -74.5000 194° South 222 255 7,100  Level New York TRACON
06:32PM 41.0833 -74.5333 201° Southwest 223 257 7,100  Level New York TRACON
06:33PM 41.0333 -74.5333 180° South 231 266 7,100 -300 Level New York TRACON
06:34PM 41.0500 -74.4500 75° East 253 291 6,600 -840 Descending New York TRACON
06:35PM 41.0500 -74.3667 90° East 228 262 5,500 -840 Descending New York TRACON
06:36PM 41.0167 -74.3167 131° Southeast 210 242 5,000 -720 Descending New York TRACON
06:37PM 40.9667 -74.2500 135° Southeast 201 231 4,100 -480 Descending New York TRACON
06:38PM 40.9333 -74.2000 131° Southeast 176 203 4,100 -60 Level New York TRACON
06:39PM 40.9000 -74.1500 131° Southeast 179 206 4,000 -480 Descending New York TRACON
06:40PM 40.8667 -74.1000 131° Southeast 176 203 3,200 -780 Descending New York TRACON
06:41PM 40.8333 -74.1000 180° South 176 203 2,600 -660 Descending New York TRACON
06:42PM 40.7833 -74.1000 180° South 182 209 2,000 -720 Descending New York TRACON
06:43PM 40.7500 -74.1333 217° Southwest 133 153 1,200 -840 Descending New York TRACON